Time;durP1;ratioP1;P1;durP2;ratioP2;P2;SDS_P1;SDS_P2;PMS_P1;PMS_P2;Temp;Humidity;BMP_temperature;BMP_pressure;BME280_temperature;BME280_humidity;BME280_pressure;Samples;Min_cycle;Max_cycle;Signal;HPM_P1;HPM_P2
2021/09/29 00:01:24;;;;;;;5.13;1.45;;;16.30;99.90;;;;;;5070575;28;20210;-83
2021/09/29 00:03:51;;;;;;;3.03;0.98;;;16.20;99.90;;;;;;5071687;28;20202;-83
2021/09/29 00:06:18;;;;;;;4.47;1.65;;;16.20;99.90;;;;;;5070591;28;20637;-82
2021/09/29 00:08:45;;;;;;;3.53;1.33;;;16.20;99.90;;;;;;5070775;28;20616;-84
2021/09/29 00:11:13;;;;;;;3.90;1.50;;;16.30;99.90;;;;;;5070446;28;20276;-84
2021/09/29 00:13:40;;;;;;;5.97;1.40;;;16.30;99.90;;;;;;5070714;28;20551;-83
2021/09/29 00:16:08;;;;;;;2.78;1.15;;;16.20;99.90;;;;;;5070738;28;20211;-83
2021/09/29 00:18:35;;;;;;;1.50;1.13;;;16.10;99.90;;;;;;5056575;28;20206;-83
2021/09/29 00:21:02;;;;;;;2.30;1.25;;;16.10;99.90;;;;;;5070739;28;20267;-83
2021/09/29 00:23:29;;;;;;;2.38;1.50;;;16.00;99.90;;;;;;5069984;28;20202;-81
2021/09/29 00:25:56;;;;;;;1.67;1.15;;;16.10;99.90;;;;;;5070312;28;20620;-83
2021/09/29 00:28:23;;;;;;;4.43;1.40;;;16.10;99.90;;;;;;5070891;28;20267;-82
2021/09/29 00:31:02;;;;;;;1.92;1.05;;;16.10;99.90;;;;;;5072707;28;20226;-82
2021/09/29 00:33:31;;;;;;;2.72;1.45;;;16.10;99.90;;;;;;5074036;28;20267;-82
2021/09/29 00:35:58;;;;;;;2.22;1.50;;;16.00;99.90;;;;;;5074561;28;20210;-83
2021/09/29 00:38:25;;;;;;;2.72;1.70;;;16.00;99.90;;;;;;5074137;28;20202;-84
2021/09/29 00:40:52;;;;;;;6.45;2.28;;;16.10;99.90;;;;;;5074445;28;20638;-81
2021/09/29 00:43:19;;;;;;;4.80;1.52;;;16.20;99.90;;;;;;5074497;28;20640;-83
2021/09/29 00:45:46;;;;;;;3.25;1.70;;;16.20;99.90;;;;;;5073733;28;20709;-78
2021/09/29 00:48:13;;;;;;;2.33;1.50;;;16.00;99.90;;;;;;5074464;28;20280;-77
2021/09/29 00:50:42;;;;;;;3.05;1.75;;;16.00;99.90;;;;;;5073258;28;20643;-78
2021/09/29 00:53:10;;;;;;;2.28;1.40;;;16.00;99.90;;;;;;5073966;28;20210;-79
2021/09/29 00:55:38;;;;;;;4.10;1.40;;;16.00;99.90;;;;;;5073474;28;20235;-78
2021/09/29 00:58:05;;;;;;;1.85;1.10;;;15.90;99.90;;;;;;5073659;28;20263;-79
2021/09/29 01:00:33;;;;;;;2.90;1.20;;;15.90;99.90;;;;;;5073595;28;20205;-78
2021/09/29 01:03:01;;;;;;;3.47;1.90;;;15.90;99.90;;;;;;5073566;28;20794;-78
2021/09/29 01:05:28;;;;;;;3.60;1.95;;;16.00;99.90;;;;;;5073307;28;20210;-76
2021/09/29 01:08:03;;;;;;;4.65;1.85;;;16.00;99.90;;;;;;5073385;28;20688;-77
2021/09/29 01:10:35;;;;;;;3.53;1.95;;;16.10;99.90;;;;;;5073250;28;20209;-76
2021/09/29 01:13:11;;;;;;;4.22;1.50;;;16.00;99.90;;;;;;5073389;28;20256;-78
2021/09/29 01:15:45;;;;;;;3.28;1.98;;;16.00;99.90;;;;;;5072991;28;20677;-82
2021/09/29 01:18:14;;;;;;;2.20;1.45;;;16.00;99.90;;;;;;5073723;28;20623;-84
2021/09/29 01:20:45;;;;;;;2.58;1.45;;;16.10;99.90;;;;;;5073771;28;20202;-82
2021/09/29 01:23:29;;;;;;;4.22;1.60;;;16.00;99.90;;;;;;5073294;28;20206;-80
2021/09/29 01:26:06;;;;;;;4.13;1.67;;;16.00;99.90;;;;;;5073413;28;20206;-82
2021/09/29 01:28:36;;;;;;;5.43;1.90;;;16.00;99.90;;;;;;5072751;28;20256;-82
2021/09/29 01:31:05;;;;;;;8.88;1.98;;;16.20;99.90;;;;;;5073412;28;20234;-80
2021/09/29 01:33:36;;;;;;;4.93;1.55;;;16.10;99.90;;;;;;5072687;28;20670;-80
2021/09/29 01:36:04;;;;;;;5.15;1.13;;;16.20;99.90;;;;;;5073360;28;20210;-79
2021/09/29 01:38:32;;;;;;;4.15;2.10;;;16.20;99.90;;;;;;5072369;28;20207;-79
2021/09/29 01:40:59;;;;;;;1.35;1.17;;;16.30;99.90;;;;;;5073031;28;20289;-77
2021/09/29 01:43:28;;;;;;;2.88;1.73;;;16.30;99.90;;;;;;5072139;28;20297;-77
2021/09/29 01:45:56;;;;;;;8.43;2.20;;;16.20;99.90;;;;;;5072752;28;20206;-77
2021/09/29 01:48:23;;;;;;;3.40;1.60;;;16.20;99.90;;;;;;5071602;28;20210;-81
2021/09/29 01:50:54;;;;;;;5.65;1.88;;;16.20;99.90;;;;;;5072178;28;20206;-79
2021/09/29 01:53:24;;;;;;;7.22;2.45;;;16.20;99.90;;;;;;5073681;28;20206;-80
2021/09/29 01:55:52;;;;;;;5.38;2.33;;;16.20;99.90;;;;;;5073146;28;20233;-78
2021/09/29 01:58:19;;;;;;;6.47;2.20;;;16.20;99.90;;;;;;5072503;28;20689;-75
2021/09/29 02:00:47;;;;;;;3.80;2.15;;;16.20;99.90;;;;;;5072294;28;20387;-77
2021/09/29 02:03:20;;;;;;;3.53;2.63;;;16.20;99.90;;;;;;5072678;28;20584;-78
2021/09/29 02:05:50;;;;;;;5.60;2.70;;;16.20;99.90;;;;;;5071858;28;20275;-80
2021/09/29 02:08:19;;;;;;;4.57;2.20;;;16.10;99.90;;;;;;5072909;28;20245;-77
2021/09/29 02:10:46;;;;;;;5.63;2.05;;;16.10;99.90;;;;;;5072082;28;20260;-83
2021/09/29 02:13:13;;;;;;;4.10;2.38;;;16.10;99.90;;;;;;5072494;28;20777;-82
2021/09/29 02:15:40;;;;;;;5.15;2.65;;;16.10;99.90;;;;;;5071968;28;20221;-81
2021/09/29 02:18:09;;;;;;;5.50;2.92;;;16.20;99.90;;;;;;5072518;28;20209;-80
2021/09/29 02:20:36;;;;;;;5.60;2.67;;;16.20;99.90;;;;;;5072125;28;20673;-84
2021/09/29 02:23:03;;;;;;;6.93;2.72;;;16.20;99.90;;;;;;5073266;28;20213;-83
2021/09/29 02:25:30;;;;;;;4.13;2.60;;;16.30;99.90;;;;;;5072327;28;20691;-77
2021/09/29 02:27:57;;;;;;;7.18;3.00;;;16.30;99.90;;;;;;5072192;28;20263;-82
2021/09/29 02:30:24;;;;;;;4.03;2.40;;;16.40;99.90;;;;;;5072188;28;20608;-74
2021/09/29 02:32:51;;;;;;;4.30;2.80;;;16.40;99.90;;;;;;5071813;28;20317;-82
2021/09/29 02:35:20;;;;;;;4.45;2.78;;;16.40;99.90;;;;;;5072339;28;20267;-82
2021/09/29 02:37:47;;;;;;;6.57;2.70;;;16.50;99.90;;;;;;5071624;28;20214;-81
2021/09/29 02:40:15;;;;;;;4.40;2.58;;;16.50;99.90;;;;;;5071916;28;20545;-82
2021/09/29 02:42:42;;;;;;;5.88;3.25;;;16.40;99.90;;;;;;5071615;28;20681;-82
2021/09/29 02:45:10;;;;;;;6.65;2.95;;;16.30;99.90;;;;;;5071857;28;20210;-82
2021/09/29 02:47:37;;;;;;;7.22;2.45;;;16.40;99.90;;;;;;5071433;28;20213;-82
2021/09/29 02:50:04;;;;;;;6.47;3.45;;;16.30;99.90;;;;;;5071365;28;20263;-83
2021/09/29 02:52:33;;;;;;;4.15;2.88;;;16.30;99.90;;;;;;5071638;28;20229;-81
2021/09/29 02:55:00;;;;;;;7.22;2.97;;;16.30;99.90;;;;;;5069927;28;20207;-81
2021/09/29 02:57:27;;;;;;;6.90;2.72;;;16.30;99.90;;;;;;5071703;28;20213;-79
2021/09/29 02:59:54;;;;;;;8.50;3.38;;;16.30;99.90;;;;;;5071722;28;20260;-85
2021/09/29 03:02:21;;;;;;;5.43;2.65;;;16.30;99.90;;;;;;5072203;28;20750;-78
2021/09/29 03:04:48;;;;;;;6.78;2.97;;;16.40;99.90;;;;;;5071854;28;20210;-85
2021/09/29 03:07:15;;;;;;;7.10;3.45;;;16.30;99.90;;;;;;5072121;28;20210;-86
2021/09/29 03:09:43;;;;;;;4.07;2.83;;;16.40;99.90;;;;;;5071425;28;20206;-82
2021/09/29 03:12:11;;;;;;;4.30;2.67;;;16.30;99.90;;;;;;5071212;28;20226;-83
2021/09/29 03:14:38;;;;;;;7.18;3.17;;;16.30;99.90;;;;;;5071209;28;20596;-83
2021/09/29 03:17:05;;;;;;;6.80;3.08;;;16.30;99.90;;;;;;5071392;28;20259;-83
2021/09/29 03:19:32;;;;;;;8.57;3.22;;;16.30;99.90;;;;;;5071207;28;20259;-84
2021/09/29 03:22:01;;;;;;;8.38;3.42;;;16.30;99.90;;;;;;5071343;28;20263;-82
2021/09/29 03:24:28;;;;;;;9.27;2.65;;;16.20;99.90;;;;;;5070589;28;20208;-81
2021/09/29 03:26:57;;;;;;;6.55;3.40;;;16.30;99.90;;;;;;5070836;28;20220;-80
2021/09/29 03:29:24;;;;;;;5.50;3.60;;;16.30;99.90;;;;;;5057615;28;20202;-77
2021/09/29 03:31:51;;;;;;;10.18;3.00;;;16.30;99.90;;;;;;5071481;28;20256;-81
2021/09/29 03:34:18;;;;;;;10.05;3.47;;;16.20;99.90;;;;;;5070761;28;20202;-82
2021/09/29 03:36:45;;;;;;;6.15;2.97;;;16.30;99.90;;;;;;5070356;28;20673;-81
2021/09/29 03:39:13;;;;;;;6.35;3.35;;;16.40;99.90;;;;;;5070566;28;20202;-78
2021/09/29 03:41:40;;;;;;;5.28;3.58;;;16.40;99.90;;;;;;5068721;28;20743;-82
2021/09/29 03:44:08;;;;;;;6.22;3.05;;;16.40;99.90;;;;;;5070312;28;20800;-81
2021/09/29 03:46:35;;;;;;;4.88;2.97;;;16.40;99.90;;;;;;5070513;28;20206;-78
2021/09/29 03:49:03;;;;;;;11.32;4.07;;;16.40;99.90;;;;;;5071064;28;20213;-81
2021/09/29 03:51:30;;;;;;;5.72;2.63;;;16.40;99.90;;;;;;5056294;28;20213;-81
2021/09/29 03:53:57;;;;;;;5.38;3.70;;;16.40;99.90;;;;;;5066933;28;20689;-80
2021/09/29 03:56:24;;;;;;;10.60;3.60;;;16.30;99.90;;;;;;5070202;28;20210;-76
2021/09/29 03:58:51;;;;;;;9.82;3.22;;;16.30;99.90;;;;;;5070136;28;20233;-77
2021/09/29 04:01:20;;;;;;;7.38;2.65;;;16.30;99.90;;;;;;5068593;28;20214;-81
2021/09/29 04:03:47;;;;;;;14.40;3.47;;;16.30;99.90;;;;;;5069796;28;20206;-84
2021/09/29 04:06:14;;;;;;;7.57;3.17;;;16.20;99.90;;;;;;5070187;28;20205;-83
2021/09/29 04:08:41;;;;;;;9.55;3.17;;;16.20;99.90;;;;;;5069760;28;20201;-83
2021/09/29 04:11:10;;;;;;;9.60;2.60;;;16.20;99.90;;;;;;5070849;28;20202;-82
2021/09/29 04:13:37;;;;;;;9.40;3.17;;;16.20;99.90;;;;;;5070023;28;20267;-82
2021/09/29 04:16:04;;;;;;;6.15;2.90;;;16.20;99.90;;;;;;5070592;28;20202;-82
2021/09/29 04:18:33;;;;;;;6.88;3.17;;;16.20;99.90;;;;;;5069860;28;20212;-82
2021/09/29 04:21:00;;;;;;;9.73;3.30;;;16.20;99.90;;;;;;5069850;28;20617;-76
2021/09/29 04:23:27;;;;;;;3.65;2.72;;;16.20;99.90;;;;;;5069921;28;20734;-77
2021/09/29 04:25:54;;;;;;;5.30;3.00;;;16.30;99.90;;;;;;5070238;28;20203;-77
2021/09/29 04:28:22;;;;;;;6.13;2.55;;;16.30;99.90;;;;;;5070604;28;20206;-80
2021/09/29 04:30:49;;;;;;;6.30;3.58;;;16.30;99.90;;;;;;5070038;28;20206;-81
2021/09/29 04:33:16;;;;;;;5.30;2.75;;;16.30;99.90;;;;;;5070388;28;20234;-81
2021/09/29 04:35:45;;;;;;;7.15;2.75;;;16.30;99.90;;;;;;5069290;28;20251;-83
2021/09/29 04:38:12;;;;;;;5.18;3.00;;;16.30;99.90;;;;;;5070409;28;20214;-84
2021/09/29 04:40:40;;;;;;;6.18;2.97;;;16.30;99.90;;;;;;5070036;28;20205;-84
2021/09/29 04:43:09;;;;;;;10.32;2.97;;;16.30;99.90;;;;;;5070312;28;20234;-83
2021/09/29 04:45:36;;;;;;;10.18;2.53;;;16.30;99.90;;;;;;5069762;28;20210;-84
2021/09/29 04:48:05;;;;;;;8.25;2.92;;;16.20;99.90;;;;;;5070126;28;20267;-84
2021/09/29 04:50:33;;;;;;;3.97;2.10;;;16.20;99.90;;;;;;5069686;28;20202;-84
2021/09/29 04:53:03;;;;;;;7.22;2.38;;;16.20;99.90;;;;;;5070065;28;20233;-85
2021/09/29 04:55:30;;;;;;;4.88;2.25;;;16.20;99.90;;;;;;5069148;28;20719;-85
2021/09/29 04:57:58;;;;;;;6.45;2.55;;;16.20;99.90;;;;;;5069885;28;20249;-84
2021/09/29 05:00:26;;;;;;;8.10;2.47;;;16.20;99.90;;;;;;5069774;28;20208;-83
2021/09/29 05:02:53;;;;;;;4.28;2.03;;;16.20;99.90;;;;;;5068878;28;20214;-85
2021/09/29 05:05:21;;;;;;;6.47;3.00;;;16.30;99.90;;;;;;5070184;28;20202;-85
2021/09/29 05:07:51;;;;;;;4.35;2.22;;;16.30;99.90;;;;;;5069569;28;20677;-85
2021/09/29 05:10:26;;;;;;;3.80;2.22;;;16.30;99.90;;;;;;5069984;28;20202;-86
2021/09/29 05:12:54;;;;;;;7.60;2.55;;;16.30;99.90;;;;;;5070216;28;20716;-85
2021/09/29 05:15:21;;;;;;;2.92;1.80;;;16.30;99.90;;;;;;5069896;28;20697;-84
2021/09/29 05:17:48;;;;;;;3.53;2.60;;;16.30;99.90;;;;;;5071201;28;20678;-81
2021/09/29 05:20:15;;;;;;;4.10;2.22;;;16.30;99.90;;;;;;5073290;28;20217;-84
2021/09/29 05:22:42;;;;;;;6.20;2.47;;;16.20;99.90;;;;;;5073261;28;20217;-77
2021/09/29 05:25:10;;;;;;;4.15;2.00;;;16.20;99.90;;;;;;5073227;28;20210;-80
2021/09/29 05:27:38;;;;;;;8.90;2.45;;;16.20;99.90;;;;;;5072603;28;20209;-82
2021/09/29 05:30:07;;;;;;;7.35;2.50;;;16.20;99.90;;;;;;5073735;28;20203;-81
2021/09/29 05:32:33;;;;;;;4.60;2.28;;;16.20;99.90;;;;;;5072896;28;20249;-78
2021/09/29 05:35:00;;;;;;;7.47;2.08;;;16.20;99.90;;;;;;5073362;28;20276;-84
2021/09/29 05:37:27;;;;;;;4.47;2.20;;;16.20;99.90;;;;;;5072822;28;20256;-79
2021/09/29 05:39:54;;;;;;;5.32;2.40;;;16.20;99.90;;;;;;5073198;28;20264;-84
2021/09/29 05:42:21;;;;;;;4.07;2.28;;;16.20;99.90;;;;;;5073115;28;20214;-84
2021/09/29 05:44:50;;;;;;;4.43;2.78;;;16.20;99.90;;;;;;5073015;28;20259;-84
2021/09/29 05:47:17;;;;;;;4.72;2.42;;;16.30;99.90;;;;;;5073255;28;20259;-82
2021/09/29 05:49:44;;;;;;;8.27;2.25;;;16.30;99.90;;;;;;5072471;28;20633;-86
2021/09/29 05:52:11;;;;;;;11.93;2.30;;;16.20;99.90;;;;;;5073009;28;20259;-83
2021/09/29 05:54:38;;;;;;;5.97;2.75;;;16.20;99.90;;;;;;5072248;28;20207;-80
2021/09/29 05:57:05;;;;;;;6.50;2.10;;;16.10;99.90;;;;;;5072895;28;20206;-81
2021/09/29 05:59:32;;;;;;;6.10;2.03;;;16.00;99.90;;;;;;5072197;28;20612;-81
2021/09/29 06:02:01;;;;;;;3.72;2.38;;;16.00;99.90;;;;;;5072487;28;20263;-82
2021/09/29 06:04:28;;;;;;;8.63;3.13;;;16.10;99.90;;;;;;5072227;28;20214;-80
2021/09/29 06:06:55;;;;;;;8.38;2.88;;;16.10;99.90;;;;;;5072614;28;20202;-75
2021/09/29 06:09:22;;;;;;;7.35;1.85;;;16.00;99.90;;;;;;5071530;28;20210;-78
2021/09/29 06:11:49;;;;;;;3.92;2.25;;;16.00;99.90;;;;;;5072468;28;20202;-80
2021/09/29 06:14:16;;;;;;;4.07;2.10;;;16.00;99.90;;;;;;5072559;28;20283;-82
2021/09/29 06:16:46;;;;;;;3.35;1.95;;;16.00;99.90;;;;;;5071907;28;20260;-78
2021/09/29 06:19:16;;;;;;;7.63;3.05;;;16.00;99.90;;;;;;5058410;28;20725;-76
2021/09/29 06:21:44;;;;;;;5.63;2.65;;;16.00;99.90;;;;;;5071452;28;20229;-77
2021/09/29 06:24:11;;;;;;;4.07;2.28;;;16.00;99.90;;;;;;5071766;28;20673;-77
2021/09/29 06:26:38;;;;;;;4.63;2.83;;;16.00;99.90;;;;;;5071617;28;20206;-76
2021/09/29 06:29:05;;;;;;;2.40;1.90;;;16.20;99.90;;;;;;5071774;28;20202;-77
2021/09/29 06:31:32;;;;;;;7.38;2.05;;;16.20;99.90;;;;;;5071548;28;20210;-76
2021/09/29 06:34:00;;;;;;;6.53;3.13;;;16.10;99.90;;;;;;5071469;28;20774;-77
2021/09/29 06:36:28;;;;;;;5.53;2.35;;;16.20;99.90;;;;;;5071246;28;20271;-77
2021/09/29 06:38:55;;;;;;;5.18;2.05;;;16.20;99.90;;;;;;5071659;28;20210;-77
2021/09/29 06:41:22;;;;;;;5.63;2.08;;;16.20;99.90;;;;;;5072376;28;20218;-76
2021/09/29 06:43:49;;;;;;;3.28;2.40;;;16.20;99.90;;;;;;5071266;28;20678;-76
2021/09/29 06:46:16;;;;;;;5.93;2.25;;;16.10;99.90;;;;;;5070543;28;20279;-76
2021/09/29 06:48:43;;;;;;;3.00;2.17;;;16.10;99.90;;;;;;5071407;28;20202;-76
2021/09/29 06:51:10;;;;;;;4.30;2.05;;;16.10;99.90;;;;;;5071377;28;20206;-76
2021/09/29 06:53:39;;;;;;;7.10;2.00;;;16.10;99.90;;;;;;5069765;28;20294;-80
2021/09/29 06:56:06;;;;;;;7.70;2.28;;;16.10;99.90;;;;;;5071079;28;20216;-79
2021/09/29 06:58:34;;;;;;;6.75;2.70;;;16.20;99.90;;;;;;5070895;28;20260;-79
2021/09/29 07:01:01;;;;;;;4.88;2.13;;;16.20;99.90;;;;;;5070967;28;20232;-78
2021/09/29 07:03:28;;;;;;;3.10;2.78;;;16.20;99.90;;;;;;5071012;28;20267;-77
2021/09/29 07:05:56;;;;;;;18.42;2.88;;;16.30;99.90;;;;;;5070537;28;20263;-73
2021/09/29 07:08:24;;;;;;;3.67;2.15;;;16.30;99.90;;;;;;5071315;28;20209;-76
2021/09/29 07:10:53;;;;;;;3.63;1.70;;;16.50;99.90;;;;;;5071131;28;20203;-75
2021/09/29 07:13:21;;;;;;;4.35;1.75;;;16.50;99.90;;;;;;5070974;28;20271;-75
2021/09/29 07:15:48;;;;;;;6.82;1.60;;;16.60;99.90;;;;;;5070330;28;20198;-76
2021/09/29 07:18:17;;;;;;;4.78;2.35;;;16.70;99.90;;;;;;5070766;28;20645;-73
2021/09/29 07:20:44;;;;;;;5.13;1.88;;;16.70;99.90;;;;;;5070763;28;20796;-73
2021/09/29 07:23:12;;;;;;;2.63;1.83;;;16.80;99.90;;;;;;5071035;28;20210;-73
2021/09/29 07:25:39;;;;;;;3.65;2.05;;;16.90;99.90;;;;;;5070512;28;20217;-75
2021/09/29 07:28:07;;;;;;;2.38;1.65;;;16.90;99.90;;;;;;5070907;28;20283;-74
2021/09/29 07:30:35;;;;;;;4.10;1.35;;;16.80;99.90;;;;;;5070158;28;20293;-75
2021/09/29 07:33:06;;;;;;;3.63;1.70;;;16.80;99.90;;;;;;5070008;28;20229;-75
2021/09/29 07:35:34;;;;;;;8.43;1.80;;;16.80;99.90;;;;;;5068065;28;20228;-75
2021/09/29 07:38:01;;;;;;;4.65;1.75;;;16.70;99.90;;;;;;5072947;28;20292;-75
2021/09/29 07:40:29;;;;;;;6.63;2.53;;;16.70;99.90;;;;;;5069279;28;20210;-76
2021/09/29 07:42:57;;;;;;;4.95;1.67;;;17.00;99.90;;;;;;5070081;28;20279;-76
2021/09/29 07:45:26;;;;;;;2.38;1.50;;;17.30;99.90;;;;;;5068634;28;20214;-75
2021/09/29 07:47:53;;;;;;;2.85;1.50;;;17.10;99.90;;;;;;5068750;28;20621;-75
2021/09/29 07:50:21;;;;;;;6.50;2.28;;;17.00;99.90;;;;;;5069617;28;20263;-76
2021/09/29 07:52:48;;;;;;;4.30;2.10;;;17.10;99.90;;;;;;5068941;28;20702;-79
2021/09/29 07:55:17;;;;;;;8.05;1.92;;;17.10;99.90;;;;;;5070306;28;20742;-75
2021/09/29 07:57:45;;;;;;;2.33;1.75;;;17.10;99.90;;;;;;5070091;28;20246;-74
2021/09/29 08:00:14;;;;;;;4.82;2.75;;;17.20;99.90;;;;;;5070307;28;20248;-75
2021/09/29 08:02:43;;;;;;;4.43;2.10;;;17.20;99.90;;;;;;5069796;28;20221;-73
2021/09/29 08:05:11;;;;;;;2.78;1.48;;;17.30;99.90;;;;;;5070317;28;20221;-74
2021/09/29 08:07:38;;;;;;;3.65;1.38;;;17.30;99.90;;;;;;5070083;28;20669;-75
2021/09/29 08:10:06;;;;;;;2.97;1.67;;;17.40;99.90;;;;;;5070026;28;20202;-74
2021/09/29 08:12:33;;;;;;;4.25;1.52;;;17.50;99.90;;;;;;5068732;28;20289;-74
2021/09/29 08:15:00;;;;;;;7.85;1.80;;;17.60;99.90;;;;;;5069930;28;20233;-74
2021/09/29 08:17:27;;;;;;;2.72;1.67;;;18.10;99.90;;;;;;5069769;28;20206;-74
2021/09/29 08:19:56;;;;;;;4.47;1.80;;;18.10;99.90;;;;;;5070147;28;20214;-74
2021/09/29 08:22:23;;;;;;;7.30;2.10;;;18.00;99.90;;;;;;5070258;28;20232;-74
2021/09/29 08:24:57;;;;;;;7.97;1.63;;;17.90;99.90;;;;;;5070152;28;20267;-74
2021/09/29 08:27:30;;;;;;;4.00;1.45;;;18.10;99.90;;;;;;5069681;28;20200;-74
2021/09/29 08:30:11;;;;;;;8.57;2.17;;;18.10;99.90;;;;;;5070325;28;20202;-74
2021/09/29 08:32:42;;;;;;;3.30;1.85;;;18.40;99.90;;;;;;5069465;28;20197;-74
2021/09/29 08:35:23;;;;;;;5.13;1.77;;;18.50;99.90;;;;;;5070081;28;20241;-74
2021/09/29 08:37:55;;;;;;;6.88;2.25;;;18.60;99.90;;;;;;5069720;28;20666;-74
2021/09/29 08:40:24;;;;;;;2.75;1.60;;;18.50;99.90;;;;;;5070310;28;20699;-75
2021/09/29 08:43:11;;;;;;;3.15;1.17;;;18.40;99.90;;;;;;5068827;28;20255;-75
2021/09/29 08:45:41;;;;;;;4.78;1.83;;;18.40;99.90;;;;;;5063514;28;20214;-75
2021/09/29 08:48:20;;;;;;;4.05;2.00;;;18.30;99.90;;;;;;5069657;28;20202;-74
2021/09/29 08:53:49;;;;;;;5.55;1.55;;;18.80;99.90;;;;;;5061026;28;20287;-76
2021/09/29 09:15:55;;;;;;;5.43;1.50;;;19.70;99.90;;;;;;5072240;28;20213;-75
2021/09/29 09:18:22;;;;;;;5.72;1.50;;;19.50;99.90;;;;;;5073711;28;20268;-75
2021/09/29 09:20:54;;;;;;;7.28;1.27;;;19.70;99.90;;;;;;5072820;28;20681;-76
2021/09/29 09:23:34;;;;;;;5.55;1.48;;;20.00;99.90;;;;;;5073261;28;20210;-75
2021/09/29 09:26:12;;;;;;;3.80;2.22;;;20.40;99.90;;;;;;5072876;28;20301;-75
2021/09/29 09:28:40;;;;;;;4.88;1.40;;;20.60;99.90;;;;;;5072697;28;20641;-74
2021/09/29 09:31:09;;;;;;;4.13;1.25;;;20.70;99.90;;;;;;5073154;28;20214;-73
2021/09/29 09:33:49;;;;;;;2.78;1.25;;;20.90;99.90;;;;;;5072623;28;20272;-73
2021/09/29 09:36:30;;;;;;;5.15;1.80;;;21.00;99.90;;;;;;5073106;28;20237;-73
2021/09/29 09:39:01;;;;;;;6.05;1.50;;;20.90;99.90;;;;;;5067945;28;20206;-74
2021/09/29 09:41:27;;;;;;;5.05;1.88;;;21.20;99.90;;;;;;5072336;28;20268;-74
2021/09/29 09:43:56;;;;;;;4.95;1.98;;;21.30;99.90;;;;;;5072897;28;20214;-74
2021/09/29 09:46:24;;;;;;;7.40;1.27;;;20.80;99.90;;;;;;5066663;28;20210;-74
2021/09/29 09:49:03;;;;;;;4.60;1.05;;;20.60;99.90;;;;;;5073415;28;20206;-73
2021/09/29 09:51:31;;;;;;;6.82;1.98;;;21.00;99.90;;;;;;5065824;28;20201;-73
2021/09/29 09:53:59;;;;;;;1.50;0.80;;;21.30;99.90;;;;;;5072390;28;20305;-73
2021/09/29 09:56:29;;;;;;;4.30;1.20;;;21.00;99.90;;;;;;5071724;28;20305;-73
2021/09/29 09:58:57;;;;;;;3.90;1.63;;;21.50;99.90;;;;;;5072797;28;20586;-74
2021/09/29 10:01:28;;;;;;;7.10;1.60;;;22.10;99.90;;;;;;5073043;28;20637;-74
2021/09/29 10:03:56;;;;;;;6.47;1.00;;;22.20;99.90;;;;;;5071939;28;20197;-74
2021/09/29 10:06:24;;;;;;;2.47;0.95;;;22.00;99.90;;;;;;5073121;28;20210;-75
2021/09/29 10:09:01;;;;;;;1.70;1.45;;;22.00;99.90;;;;;;5071636;28;20209;-77
2021/09/29 10:11:33;;;;;;;8.15;2.63;;;21.50;99.90;;;;;;5071645;28;20198;-77
2021/09/29 10:27:57;;;;;;;5.68;1.25;;;21.30;99.90;;;;;;5060467;28;20255;-75
2021/09/29 10:30:29;;;;;;;3.88;1.35;;;21.50;99.90;;;;;;5072051;28;20206;-75
2021/09/29 10:33:00;;;;;;;5.88;1.50;;;22.10;99.90;;;;;;5072170;28;20198;-75
2021/09/29 10:35:46;;;;;;;6.88;1.80;;;22.10;99.90;;;;;;5071629;28;20238;-74
2021/09/29 10:44:01;;;;;;;6.07;1.30;;;21.50;99.90;;;;;;5071410;28;20229;-75
2021/09/29 10:46:38;;;;;;;3.65;1.17;;;21.50;99.90;;;;;;5071425;28;20252;-75
2021/09/29 10:49:17;;;;;;;5.35;1.20;;;21.50;99.90;;;;;;5071432;28;20235;-75
2021/09/29 10:52:23;;;;;;;3.63;1.10;;;21.50;99.90;;;;;;5071244;28;20214;-75
2021/09/29 11:31:19;;;;;;;5.43;1.50;;;21.40;99.90;;;;;;5053329;28;20578;-74
2021/09/29 11:33:56;;;;;;;2.38;1.10;;;21.00;99.90;;;;;;5069937;28;20248;-75
2021/09/29 11:36:41;;;;;;;2.35;1.13;;;21.00;99.90;;;;;;5070785;28;20283;-73
2021/09/29 12:10:07;;;;;;;5.55;1.33;;;21.50;99.90;;;;;;5070246;28;20300;-73
2021/09/29 12:12:37;;;;;;;4.40;1.13;;;21.20;99.90;;;;;;5057531;28;21030;-76
2021/09/29 12:15:07;;;;;;;2.78;0.82;;;21.10;99.90;;;;;;5069806;28;20697;-73
2021/09/29 12:17:37;;;;;;;2.90;0.82;;;21.10;99.90;;;;;;5070034;28;20678;-75
2021/09/29 12:20:14;;;;;;;7.82;1.55;;;21.10;99.90;;;;;;5070170;28;20206;-74
2021/09/29 12:22:47;;;;;;;2.38;0.80;;;21.10;99.90;;;;;;5069892;28;20214;-74
2021/09/29 12:25:23;;;;;;;4.07;1.38;;;21.40;99.90;;;;;;5068756;28;20747;-75
2021/09/29 12:27:56;;;;;;;2.08;1.10;;;21.70;99.90;;;;;;5073440;28;20202;-75
2021/09/29 12:30:30;;;;;;;3.42;0.75;;;21.80;99.90;;;;;;5076025;28;20197;-73
2021/09/29 12:33:06;;;;;;;2.97;1.13;;;21.80;99.90;;;;;;5073770;28;20204;-75
2021/09/29 12:35:43;;;;;;;1.73;1.33;;;21.80;99.90;;;;;;5071003;28;20229;-75
2021/09/29 12:38:12;;;;;;;4.07;1.23;;;21.60;99.90;;;;;;5074209;28;20294;-75
2021/09/29 12:40:43;;;;;;;2.25;0.95;;;21.20;99.90;;;;;;5073280;28;20198;-76
2021/09/29 12:43:13;;;;;;;2.13;1.17;;;21.00;99.90;;;;;;5074090;28;20206;-81
2021/09/29 12:45:42;;;;;;;4.63;2.05;;;20.80;99.90;;;;;;5073463;28;20202;-78
2021/09/29 12:48:11;;;;;;;7.13;1.98;;;20.90;99.90;;;;;;5074020;28;20245;-74
2021/09/29 12:50:45;;;;;;;4.10;1.20;;;21.30;99.90;;;;;;5073288;28;20346;-75
2021/09/29 12:53:22;;;;;;;3.25;1.25;;;21.70;99.90;;;;;;5073793;28;20256;-80
2021/09/29 12:55:54;;;;;;;1.25;0.60;;;21.80;99.90;;;;;;5067577;28;20224;-79
2021/09/29 12:58:21;;;;;;;2.67;1.45;;;21.80;99.90;;;;;;5073979;28;20209;-80
2021/09/29 13:00:48;;;;;;;6.05;1.55;;;21.50;99.90;;;;;;5073308;28;20206;-80
2021/09/29 13:03:15;;;;;;;1.85;0.77;;;21.60;99.90;;;;;;5073336;28;20268;-83
2021/09/29 13:05:42;;;;;;;2.42;0.88;;;22.00;99.90;;;;;;5072935;28;20737;-73
2021/09/29 13:08:09;;;;;;;2.25;0.85;;;22.00;99.90;;;;;;5073150;28;20329;-73
2021/09/29 13:10:38;;;;;;;3.63;0.90;;;22.10;99.90;;;;;;5073067;28;20259;-73
2021/09/29 13:13:05;;;;;;;7.88;1.27;;;21.90;99.90;;;;;;5073426;28;20283;-74
2021/09/29 13:15:32;;;;;;;10.45;1.23;;;21.80;99.90;;;;;;5072850;28;20270;-75
2021/09/29 13:17:59;;;;;;;9.23;1.35;;;22.00;99.90;;;;;;5073055;28;20297;-74
2021/09/29 13:20:29;;;;;;;4.72;1.02;;;22.00;99.90;;;;;;5072694;28;20259;-75
2021/09/29 13:23:03;;;;;;;1.20;0.60;;;21.90;99.90;;;;;;5073175;28;20210;-78
2021/09/29 13:36:38;;;;;;;3.40;0.82;;;22.10;99.90;;;;;;5072683;28;20279;-76
2021/09/29 13:39:07;;;;;;;6.00;1.30;;;21.90;99.90;;;;;;5072043;28;20214;-75
2021/09/29 13:41:35;;;;;;;1.52;0.93;;;21.80;99.90;;;;;;5072512;28;20271;-80
2021/09/29 13:44:04;;;;;;;4.30;1.23;;;21.60;99.90;;;;;;5071680;28;20206;-77
2021/09/29 13:46:31;;;;;;;1.60;1.02;;;21.20;99.90;;;;;;5071983;28;20726;-72
2021/09/29 13:49:00;;;;;;;1.85;1.17;;;21.20;99.90;;;;;;5072690;28;20280;-74
2021/09/29 13:51:29;;;;;;;4.95;1.70;;;21.40;99.90;;;;;;5072137;28;20202;-75
2021/09/29 13:53:57;;;;;;;5.55;1.73;;;21.40;99.90;;;;;;5072477;28;20202;-73
2021/09/29 13:56:29;;;;;;;2.80;0.93;;;21.10;99.90;;;;;;5072332;28;20241;-76
2021/09/29 13:59:15;;;;;;;3.15;0.90;;;20.90;99.90;;;;;;5072979;28;20210;-75
2021/09/29 14:02:08;;;;;;;1.85;1.60;;;20.80;99.90;;;;;;5071849;28;20248;-78
2021/09/29 14:29:22;;;;;;;6.95;2.03;;;21.60;99.90;;;;;;5072128;28;20210;-81
2021/09/29 14:31:52;;;;;;;2.83;1.17;;;21.20;99.90;;;;;;5072054;28;20199;-82
2021/09/29 14:34:20;;;;;;;2.10;1.13;;;21.00;99.90;;;;;;5072355;28;20238;-81
2021/09/29 14:36:47;;;;;;;3.90;1.15;;;21.20;99.90;;;;;;5071279;28;20202;-79
2021/09/29 14:39:15;;;;;;;2.05;1.67;;;21.30;99.90;;;;;;5071283;28;20265;-76
2021/09/29 14:41:42;;;;;;;4.95;1.10;;;21.20;99.90;;;;;;5071333;28;20271;-78
2021/09/29 14:44:10;;;;;;;3.20;0.90;;;21.20;99.90;;;;;;5071393;28;20624;-74
2021/09/29 14:46:38;;;;;;;2.35;1.33;;;21.10;99.90;;;;;;5071018;28;20259;-79
2021/09/29 14:49:05;;;;;;;1.77;1.10;;;21.00;99.90;;;;;;5071361;28;20271;-76
2021/09/29 14:51:33;;;;;;;3.58;1.17;;;21.00;99.90;;;;;;5070965;28;20670;-78
2021/09/29 14:54:01;;;;;;;4.18;1.33;;;21.10;99.90;;;;;;5071543;28;20210;-79
2021/09/29 14:56:28;;;;;;;2.70;0.95;;;21.10;99.90;;;;;;5070573;28;20230;-79
2021/09/29 14:58:56;;;;;;;1.40;0.70;;;21.10;99.90;;;;;;5071623;28;20241;-78
2021/09/29 15:01:23;;;;;;;4.53;0.95;;;21.20;99.90;;;;;;5071876;28;20217;-80
2021/09/29 15:03:52;;;;;;;4.13;1.00;;;21.30;99.90;;;;;;5071276;28;20213;-75
2021/09/29 15:06:19;;;;;;;2.13;1.10;;;21.40;99.90;;;;;;5071747;28;20210;-80
2021/09/29 15:08:47;;;;;;;5.60;1.05;;;21.40;99.90;;;;;;5070644;28;20206;-79
2021/09/29 15:11:14;;;;;;;2.72;0.90;;;21.50;99.90;;;;;;5071394;28;20214;-82
2021/09/29 15:13:49;;;;;;;2.47;0.98;;;21.60;99.90;;;;;;5070685;28;20218;-79
2021/09/29 15:16:20;;;;;;;1.88;0.95;;;21.70;99.90;;;;;;5071343;28;20229;-79
2021/09/29 15:18:55;;;;;;;1.42;1.00;;;21.50;99.90;;;;;;5070607;28;20626;-78
2021/09/29 15:21:30;;;;;;;3.35;1.08;;;21.40;99.90;;;;;;5071391;28;20746;-77